sensor_id;sensor_type;location;lat;lon;timestamp;pressure;altitude;pressure_sealevel;temperature;humidity
32456;BME280;18912;43.270;27.942;2023-01-26T00:01:26;98990.41;;;7.04;67.12
32456;BME280;18912;43.270;27.942;2023-01-26T00:03:53;98986.09;;;7.19;67.08
32456;BME280;18912;43.270;27.942;2023-01-26T00:06:20;98975.16;;;7.21;66.46
32456;BME280;18912;43.270;27.942;2023-01-26T00:08:49;98964.38;;;7.13;66.45
32456;BME280;18912;43.270;27.942;2023-01-26T00:11:17;98971.97;;;7.25;66.14
32456;BME280;18912;43.270;27.942;2023-01-26T00:13:43;98969.59;;;7.14;66.65
32456;BME280;18912;43.270;27.942;2023-01-26T00:16:11;98973.66;;;7.26;66.43
32456;BME280;18912;43.270;27.942;2023-01-26T00:18:37;98965.56;;;7.18;66.88
32456;BME280;18912;43.270;27.942;2023-01-26T00:21:04;98956.00;;;7.16;66.81
32456;BME280;18912;43.270;27.942;2023-01-26T00:23:31;98958.50;;;7.09;67.28
32456;BME280;18912;43.270;27.942;2023-01-26T00:25:57;98961.88;;;7.11;67.36
32456;BME280;18912;43.270;27.942;2023-01-26T00:28:22;98965.06;;;7.15;66.76
32456;BME280;18912;43.270;27.942;2023-01-26T00:30:48;98961.19;;;7.09;67.44
32456;BME280;18912;43.270;27.942;2023-01-26T00:33:14;98957.34;;;7.20;67.09
32456;BME280;18912;43.270;27.942;2023-01-26T00:35:40;98953.44;;;7.14;67.60
32456;BME280;18912;43.270;27.942;2023-01-26T00:38:12;98950.63;;;7.16;67.46
32456;BME280;18912;43.270;27.942;2023-01-26T00:40:38;98947.94;;;7.16;67.19
32456;BME280;18912;43.270;27.942;2023-01-26T00:43:03;98953.69;;;7.37;66.65
32456;BME280;18912;43.270;27.942;2023-01-26T00:45:29;98952.63;;;7.30;66.84
32456;BME280;18912;43.270;27.942;2023-01-26T00:47:54;98940.38;;;7.19;66.84
32456;BME280;18912;43.270;27.942;2023-01-26T00:50:20;98948.38;;;6.87;68.19
32456;BME280;18912;43.270;27.942;2023-01-26T00:52:45;98936.34;;;7.23;67.08
32456;BME280;18912;43.270;27.942;2023-01-26T00:55:11;98939.56;;;7.35;66.53
32456;BME280;18912;43.270;27.942;2023-01-26T00:57:36;98945.44;;;7.38;66.67
32456;BME280;18912;43.270;27.942;2023-01-26T01:00:03;98930.63;;;7.26;66.67
32456;BME280;18912;43.270;27.942;2023-01-26T01:02:30;98933.81;;;7.38;66.58
32456;BME280;18912;43.270;27.942;2023-01-26T01:04:56;98932.31;;;7.27;67.01
32456;BME280;18912;43.270;27.942;2023-01-26T01:07:21;98919.38;;;7.23;66.88
32456;BME280;18912;43.270;27.942;2023-01-26T01:09:47;98921.19;;;7.22;67.27
32456;BME280;18912;43.270;27.942;2023-01-26T01:12:12;98916.00;;;7.21;67.77
32456;BME280;18912;43.270;27.942;2023-01-26T01:14:38;98907.06;;;7.12;67.73
32456;BME280;18912;43.270;27.942;2023-01-26T01:17:03;98905.41;;;7.19;67.00
32456;BME280;18912;43.270;27.942;2023-01-26T01:19:28;98900.72;;;7.21;67.17
32456;BME280;18912;43.270;27.942;2023-01-26T01:21:54;98898.69;;;7.31;67.21
32456;BME280;18912;43.270;27.942;2023-01-26T01:24:19;98897.00;;;7.54;66.19
32456;BME280;18912;43.270;27.942;2023-01-26T01:26:45;98895.31;;;7.37;66.95
32456;BME280;18912;43.270;27.942;2023-01-26T01:29:12;98896.31;;;7.61;66.35
32456;BME280;18912;43.270;27.942;2023-01-26T01:31:37;98889.28;;;7.43;66.86
32456;BME280;18912;43.270;27.942;2023-01-26T01:34:03;98892.63;;;7.45;66.64
32456;BME280;18912;43.270;27.942;2023-01-26T01:36:29;98890.59;;;7.31;67.31
32456;BME280;18912;43.270;27.942;2023-01-26T01:38:55;98893.31;;;7.39;67.24
32456;BME280;18912;43.270;27.942;2023-01-26T01:41:21;98893.50;;;7.46;67.20
32456;BME280;18912;43.270;27.942;2023-01-26T01:43:48;98895.16;;;7.55;66.96
32456;BME280;18912;43.270;27.942;2023-01-26T01:51:23;98887.59;;;7.18;68.44
32456;BME280;18912;43.270;27.942;2023-01-26T01:53:52;98893.00;;;7.42;67.86
32456;BME280;18912;43.270;27.942;2023-01-26T01:56:25;98887.44;;;7.52;66.93
32456;BME280;18912;43.270;27.942;2023-01-26T01:58:54;98891.47;;;7.32;67.79
32456;BME280;18912;43.270;27.942;2023-01-26T02:01:22;98891.97;;;7.51;67.09
32456;BME280;18912;43.270;27.942;2023-01-26T02:03:50;98887.59;;;7.50;67.09
32456;BME280;18912;43.270;27.942;2023-01-26T02:06:21;98880.19;;;7.52;67.01
32456;BME280;18912;43.270;27.942;2023-01-26T02:08:53;98878.50;;;7.51;67.21
32456;BME280;18912;43.270;27.942;2023-01-26T02:11:33;98880.84;;;7.63;67.07
32456;BME280;18912;43.270;27.942;2023-01-26T02:14:05;98875.47;;;7.46;67.34
32456;BME280;18912;43.270;27.942;2023-01-26T02:16:33;98873.13;;;7.60;67.13
32456;BME280;18912;43.270;27.942;2023-01-26T02:18:58;98877.31;;;7.62;66.92
32456;BME280;18912;43.270;27.942;2023-01-26T02:21:24;98871.44;;;7.58;67.09
32456;BME280;18912;43.270;27.942;2023-01-26T02:26:26;98870.75;;;7.48;66.84
32456;BME280;18912;43.270;27.942;2023-01-26T02:28:53;98868.75;;;7.18;67.98
32456;BME280;18912;43.270;27.942;2023-01-26T02:31:21;98863.03;;;7.29;67.85
32456;BME280;18912;43.270;27.942;2023-01-26T02:33:47;98851.94;;;7.48;67.03
32456;BME280;18912;43.270;27.942;2023-01-26T02:36:32;98842.19;;;7.31;67.65
32456;BME280;18912;43.270;27.942;2023-01-26T02:39:59;98842.19;;;7.47;66.86
32456;BME280;18912;43.270;27.942;2023-01-26T02:42:05;98841.53;;;7.53;67.10
32456;BME280;18912;43.270;27.942;2023-01-26T02:44:49;98833.47;;;7.45;67.42
32456;BME280;18912;43.270;27.942;2023-01-26T02:47:17;98822.88;;;7.52;67.35
32456;BME280;18912;43.270;27.942;2023-01-26T02:49:43;98829.75;;;7.54;67.71
32456;BME280;18912;43.270;27.942;2023-01-26T02:52:12;98827.03;;;7.63;67.34
32456;BME280;18912;43.270;27.942;2023-01-26T02:54:38;98822.31;;;7.65;66.85
32456;BME280;18912;43.270;27.942;2023-01-26T02:57:22;98828.84;;;7.78;66.88
32456;BME280;18912;43.270;27.942;2023-01-26T02:59:47;98820.28;;;7.75;66.39
32456;BME280;18912;43.270;27.942;2023-01-26T03:02:13;98819.75;;;7.79;66.26
32456;BME280;18912;43.270;27.942;2023-01-26T03:04:38;98810.72;;;7.64;66.77
32456;BME280;18912;43.270;27.942;2023-01-26T03:07:04;98813.88;;;7.76;66.65
32456;BME280;18912;43.270;27.942;2023-01-26T03:09:29;98820.31;;;7.67;66.61
32456;BME280;18912;43.270;27.942;2023-01-26T03:11:55;98816.25;;;7.79;66.17
32456;BME280;18912;43.270;27.942;2023-01-26T03:14:20;98814.25;;;7.73;66.58
32456;BME280;18912;43.270;27.942;2023-01-26T03:16:46;98819.63;;;7.73;66.79
32456;BME280;18912;43.270;27.942;2023-01-26T03:19:13;98821.28;;;7.74;66.51
32456;BME280;18912;43.270;27.942;2023-01-26T03:21:58;98810.88;;;7.79;66.51
32456;BME280;18912;43.270;27.942;2023-01-26T03:24:42;98811.53;;;7.81;66.61
32456;BME280;18912;43.270;27.942;2023-01-26T03:27:26;98805.81;;;7.76;66.38
32456;BME280;18912;43.270;27.942;2023-01-26T03:29:56;98807.78;;;7.98;65.77
32456;BME280;18912;43.270;27.942;2023-01-26T03:32:22;98806.69;;;8.15;65.34
32456;BME280;18912;43.270;27.942;2023-01-26T03:34:48;98818.16;;;8.09;65.78
32456;BME280;18912;43.270;27.942;2023-01-26T03:37:14;98808.50;;;7.68;66.52
32456;BME280;18912;43.270;27.942;2023-01-26T03:39:39;98794.75;;;7.54;66.66
32456;BME280;18912;43.270;27.942;2023-01-26T03:42:23;98806.19;;;7.48;66.95
32456;BME280;18912;43.270;27.942;2023-01-26T03:45:07;98810.28;;;7.44;67.27
32456;BME280;18912;43.270;27.942;2023-01-26T03:47:51;98808.56;;;7.60;66.65
32456;BME280;18912;43.270;27.942;2023-01-26T03:50:35;98806.22;;;8.42;64.29
32456;BME280;18912;43.270;27.942;2023-01-26T03:53:22;98814.41;;;7.71;66.39
32456;BME280;18912;43.270;27.942;2023-01-26T03:56:08;98823.53;;;8.78;62.88
32456;BME280;18912;43.270;27.942;2023-01-26T03:58:54;98814.66;;;8.92;62.06
32456;BME280;18912;43.270;27.942;2023-01-26T04:01:21;98813.59;;;9.01;61.54
32456;BME280;18912;43.270;27.942;2023-01-26T04:03:53;98809.28;;;8.92;61.49
32456;BME280;18912;43.270;27.942;2023-01-26T04:06:39;98802.66;;;8.95;61.42
32456;BME280;18912;43.270;27.942;2023-01-26T04:09:24;98813.44;;;8.95;61.25
32456;BME280;18912;43.270;27.942;2023-01-26T04:11:49;98804.69;;;8.70;61.92
32456;BME280;18912;43.270;27.942;2023-01-26T04:14:15;98802.56;;;8.88;61.37
32456;BME280;18912;43.270;27.942;2023-01-26T04:17:00;98804.34;;;8.96;61.25
32456;BME280;18912;43.270;27.942;2023-01-26T04:19:45;98804.53;;;8.94;61.43
32456;BME280;18912;43.270;27.942;2023-01-26T04:22:29;98798.78;;;8.97;61.07
32456;BME280;18912;43.270;27.942;2023-01-26T04:24:55;98803.50;;;8.95;61.21
32456;BME280;18912;43.270;27.942;2023-01-26T04:27:22;98798.50;;;8.92;61.01
32456;BME280;18912;43.270;27.942;2023-01-26T04:29:47;98796.28;;;8.96;61.11
32456;BME280;18912;43.270;27.942;2023-01-26T04:32:13;98796.31;;;8.88;60.93
32456;BME280;18912;43.270;27.942;2023-01-26T04:34:38;98789.38;;;8.93;61.04
32456;BME280;18912;43.270;27.942;2023-01-26T04:37:04;98800.53;;;8.90;61.25
32456;BME280;18912;43.270;27.942;2023-01-26T04:39:29;98797.78;;;8.98;61.16
32456;BME280;18912;43.270;27.942;2023-01-26T04:41:55;98800.75;;;9.03;61.05
32456;BME280;18912;43.270;27.942;2023-01-26T04:44:20;98798.50;;;8.92;61.34
32456;BME280;18912;43.270;27.942;2023-01-26T04:46:46;98798.34;;;9.08;61.13
32456;BME280;18912;43.270;27.942;2023-01-26T04:49:13;98796.69;;;9.07;60.95
32456;BME280;18912;43.270;27.942;2023-01-26T04:51:39;98793.31;;;9.05;60.89
32456;BME280;18912;43.270;27.942;2023-01-26T04:54:05;98796.69;;;9.07;60.59
32456;BME280;18912;43.270;27.942;2023-01-26T04:56:32;98797.41;;;9.01;60.76
32456;BME280;18912;43.270;27.942;2023-01-26T04:59:00;98802.59;;;9.03;60.89
32456;BME280;18912;43.270;27.942;2023-01-26T05:01:26;98799.91;;;9.03;60.73
32456;BME280;18912;43.270;27.942;2023-01-26T05:03:52;98801.59;;;9.04;60.54
32456;BME280;18912;43.270;27.942;2023-01-26T05:06:17;98801.88;;;9.09;60.40
32456;BME280;18912;43.270;27.942;2023-01-26T05:08:43;98792.38;;;8.98;60.48
32456;BME280;18912;43.270;27.942;2023-01-26T05:11:08;98798.84;;;8.89;60.42
32456;BME280;18912;43.270;27.942;2023-01-26T05:13:34;98788.41;;;8.86;60.67
32456;BME280;18912;43.270;27.942;2023-01-26T05:16:01;98790.09;;;8.87;60.61
32456;BME280;18912;43.270;27.942;2023-01-26T05:18:27;98784.22;;;8.84;60.50
32456;BME280;18912;43.270;27.942;2023-01-26T05:20:52;98778.00;;;8.83;60.66
32456;BME280;18912;43.270;27.942;2023-01-26T05:23:18;98780.38;;;8.78;60.72
32456;BME280;18912;43.270;27.942;2023-01-26T05:25:43;98779.38;;;8.79;60.73
32456;BME280;18912;43.270;27.942;2023-01-26T05:28:09;98779.69;;;8.84;60.83
32456;BME280;18912;43.270;27.942;2023-01-26T05:30:34;98788.25;;;8.88;60.60
32456;BME280;18912;43.270;27.942;2023-01-26T05:33:04;98788.78;;;8.83;60.77
32456;BME280;18912;43.270;27.942;2023-01-26T05:35:30;98780.75;;;8.75;61.26
32456;BME280;18912;43.270;27.942;2023-01-26T05:37:55;98784.94;;;8.78;60.99
32456;BME280;18912;43.270;27.942;2023-01-26T05:40:21;98797.88;;;8.82;61.05
32456;BME280;18912;43.270;27.942;2023-01-26T05:42:47;98789.03;;;8.74;61.53
32456;BME280;18912;43.270;27.942;2023-01-26T05:45:13;98793.09;;;8.70;61.57
32456;BME280;18912;43.270;27.942;2023-01-26T05:47:39;98776.69;;;8.79;61.43
32456;BME280;18912;43.270;27.942;2023-01-26T05:50:05;98789.28;;;8.87;61.36
32456;BME280;18912;43.270;27.942;2023-01-26T05:52:31;98786.72;;;8.85;61.74
32456;BME280;18912;43.270;27.942;2023-01-26T05:54:57;98781.66;;;8.90;61.91
32456;BME280;18912;43.270;27.942;2023-01-26T05:57:22;98772.72;;;8.90;61.81
32456;BME280;18912;43.270;27.942;2023-01-26T05:59:48;98776.19;;;8.98;61.96
32456;BME280;18912;43.270;27.942;2023-01-26T06:02:13;98785.09;;;8.99;61.97
32456;BME280;18912;43.270;27.942;2023-01-26T06:04:39;98777.81;;;9.07;61.61
32456;BME280;18912;43.270;27.942;2023-01-26T06:07:04;98786.63;;;9.01;61.89
32456;BME280;18912;43.270;27.942;2023-01-26T06:09:30;98783.06;;;9.01;61.85
32456;BME280;18912;43.270;27.942;2023-01-26T06:11:56;98779.84;;;9.05;61.62
32456;BME280;18912;43.270;27.942;2023-01-26T06:14:22;98772.03;;;9.10;61.80
32456;BME280;18912;43.270;27.942;2023-01-26T06:16:47;98781.34;;;9.08;61.86
32456;BME280;18912;43.270;27.942;2023-01-26T06:19:13;98772.03;;;9.10;62.07
32456;BME280;18912;43.270;27.942;2023-01-26T06:21:38;98774.22;;;9.29;61.66
32456;BME280;18912;43.270;27.942;2023-01-26T06:24:04;98770.81;;;9.50;61.67
32456;BME280;18912;43.270;27.942;2023-01-26T06:26:30;98778.53;;;9.82;61.28
32456;BME280;18912;43.270;27.942;2023-01-26T06:28:56;98767.06;;;10.24;60.66
32456;BME280;18912;43.270;27.942;2023-01-26T06:31:21;98769.50;;;10.69;59.32
32456;BME280;18912;43.270;27.942;2023-01-26T06:33:53;98761.31;;;11.32;57.46
32456;BME280;18912;43.270;27.942;2023-01-26T06:36:19;98765.09;;;11.38;56.13
32456;BME280;18912;43.270;27.942;2023-01-26T06:38:49;98766.59;;;11.13;55.69
32456;BME280;18912;43.270;27.942;2023-01-26T06:41:15;98770.91;;;11.63;55.19
32456;BME280;18912;43.270;27.942;2023-01-26T06:43:46;98774.06;;;11.94;53.83
32456;BME280;18912;43.270;27.942;2023-01-26T06:46:11;98763.69;;;12.51;53.12
32456;BME280;18912;43.270;27.942;2023-01-26T06:48:37;98767.09;;;12.79;52.14
32456;BME280;18912;43.270;27.942;2023-01-26T06:53:51;98765.72;;;14.45;47.93
32456;BME280;18912;43.270;27.942;2023-01-26T06:56:18;98763.03;;;14.39;47.44
32456;BME280;18912;43.270;27.942;2023-01-26T06:58:44;98763.13;;;13.93;47.63
32456;BME280;18912;43.270;27.942;2023-01-26T07:01:17;98765.50;;;13.44;48.48
32456;BME280;18912;43.270;27.942;2023-01-26T07:03:43;98765.84;;;12.88;49.98
32456;BME280;18912;43.270;27.942;2023-01-26T07:06:09;98747.44;;;12.64;50.52
32456;BME280;18912;43.270;27.942;2023-01-26T07:08:37;98752.81;;;12.38;50.76
32456;BME280;18912;43.270;27.942;2023-01-26T07:11:03;98751.88;;;12.18;51.26
32456;BME280;18912;43.270;27.942;2023-01-26T07:13:29;98749.63;;;11.81;52.65
32456;BME280;18912;43.270;27.942;2023-01-26T07:16:01;98745.91;;;11.95;53.12
32456;BME280;18912;43.270;27.942;2023-01-26T07:18:28;98743.56;;;11.85;53.16
32456;BME280;18912;43.270;27.942;2023-01-26T07:20:53;98742.72;;;11.23;54.74
32456;BME280;18912;43.270;27.942;2023-01-26T07:23:23;98749.72;;;11.11;55.23
32456;BME280;18912;43.270;27.942;2023-01-26T07:25:49;98748.16;;;11.02;55.86
32456;BME280;18912;43.270;27.942;2023-01-26T07:28:14;98744.09;;;11.12;55.88
32456;BME280;18912;43.270;27.942;2023-01-26T07:30:40;98743.75;;;11.22;55.74
32456;BME280;18912;43.270;27.942;2023-01-26T07:33:05;98748.31;;;11.21;56.43
32456;BME280;18912;43.270;27.942;2023-01-26T07:35:30;98742.53;;;11.52;57.26
32456;BME280;18912;43.270;27.942;2023-01-26T07:37:56;98740.63;;;11.74;58.22
32456;BME280;18912;43.270;27.942;2023-01-26T07:40:23;98742.75;;;11.85;59.61
32456;BME280;18912;43.270;27.942;2023-01-26T07:42:49;98730.19;;;12.18;59.83
32456;BME280;18912;43.270;27.942;2023-01-26T07:45:14;98729.84;;;12.41;60.03
32456;BME280;18912;43.270;27.942;2023-01-26T07:47:42;98731.16;;;12.71;60.08
32456;BME280;18912;43.270;27.942;2023-01-26T07:50:09;98727.25;;;12.93;59.68
32456;BME280;18912;43.270;27.942;2023-01-26T07:52:36;98714.56;;;13.06;59.54
32456;BME280;18912;43.270;27.942;2023-01-26T07:55:05;98709.78;;;13.08;59.79
32456;BME280;18912;43.270;27.942;2023-01-26T07:57:31;98719.16;;;13.06;59.93
32456;BME280;18912;43.270;27.942;2023-01-26T07:59:58;98714.53;;;13.46;59.00
32456;BME280;18912;43.270;27.942;2023-01-26T08:02:24;98715.81;;;13.37;58.67
32456;BME280;18912;43.270;27.942;2023-01-26T08:04:49;98707.03;;;13.15;58.82
32456;BME280;18912;43.270;27.942;2023-01-26T08:07:15;98708.72;;;13.29;58.81
32456;BME280;18912;43.270;27.942;2023-01-26T08:09:40;98713.94;;;13.11;59.35
32456;BME280;18912;43.270;27.942;2023-01-26T08:12:06;98704.75;;;13.12;60.02
32456;BME280;18912;43.270;27.942;2023-01-26T08:14:32;98705.97;;;13.42;59.86
32456;BME280;18912;43.270;27.942;2023-01-26T08:16:57;98706.22;;;13.28;60.22
32456;BME280;18912;43.270;27.942;2023-01-26T08:19:23;98707.44;;;13.32;60.06
32456;BME280;18912;43.270;27.942;2023-01-26T08:21:48;98707.88;;;13.29;59.98
32456;BME280;18912;43.270;27.942;2023-01-26T08:24:14;98713.31;;;13.16;60.10
32456;BME280;18912;43.270;27.942;2023-01-26T08:26:39;98716.66;;;13.18;60.22
32456;BME280;18912;43.270;27.942;2023-01-26T08:29:05;98722.69;;;12.93;60.82
32456;BME280;18912;43.270;27.942;2023-01-26T08:31:30;98715.75;;;12.84;61.34
32456;BME280;18912;43.270;27.942;2023-01-26T08:33:57;98723.66;;;12.53;62.28
32456;BME280;18912;43.270;27.942;2023-01-26T08:36:23;98736.53;;;12.38;63.13
32456;BME280;18912;43.270;27.942;2023-01-26T08:38:49;98727.94;;;12.28;64.07
32456;BME280;18912;43.270;27.942;2023-01-26T08:41:15;98718.19;;;12.47;63.26
32456;BME280;18912;43.270;27.942;2023-01-26T08:43:40;98710.06;;;12.40;63.63
32456;BME280;18912;43.270;27.942;2023-01-26T08:46:06;98711.97;;;12.59;63.25
32456;BME280;18912;43.270;27.942;2023-01-26T08:48:32;98702.19;;;11.98;65.93
32456;BME280;18912;43.270;27.942;2023-01-26T08:50:59;98701.81;;;12.14;66.40
32456;BME280;18912;43.270;27.942;2023-01-26T08:53:28;98699.97;;;11.40;69.18
32456;BME280;18912;43.270;27.942;2023-01-26T08:55:54;98693.00;;;11.30;70.53
32456;BME280;18912;43.270;27.942;2023-01-26T08:58:19;98689.75;;;11.42;70.87
32456;BME280;18912;43.270;27.942;2023-01-26T09:00:44;98692.03;;;11.72;70.00
32456;BME280;18912;43.270;27.942;2023-01-26T09:03:10;98688.56;;;11.16;72.44
32456;BME280;18912;43.270;27.942;2023-01-26T09:05:38;98680.81;;;11.13;73.54
32456;BME280;18912;43.270;27.942;2023-01-26T09:08:05;98669.25;;;11.60;72.23
32456;BME280;18912;43.270;27.942;2023-01-26T09:10:31;98665.03;;;11.51;73.79
32456;BME280;18912;43.270;27.942;2023-01-26T09:12:57;98665.91;;;11.24;75.96
32456;BME280;18912;43.270;27.942;2023-01-26T09:15:23;98677.56;;;10.48;79.06
32456;BME280;18912;43.270;27.942;2023-01-26T09:17:49;98670.88;;;10.44;82.53
32456;BME280;18912;43.270;27.942;2023-01-26T09:20:15;98664.44;;;9.74;85.77
32456;BME280;18912;43.270;27.942;2023-01-26T09:22:41;98662.72;;;9.87;86.66
32456;BME280;18912;43.270;27.942;2023-01-26T09:25:07;98650.97;;;10.09;85.91
32456;BME280;18912;43.270;27.942;2023-01-26T09:27:33;98640.78;;;10.11;86.98
32456;BME280;18912;43.270;27.942;2023-01-26T09:29:59;98661.19;;;10.14;85.26
32456;BME280;18912;43.270;27.942;2023-01-26T09:32:24;98642.56;;;10.04;86.52
32456;BME280;18912;43.270;27.942;2023-01-26T09:34:50;98641.13;;;10.23;85.80
32456;BME280;18912;43.270;27.942;2023-01-26T09:37:15;98626.56;;;10.45;84.66
32456;BME280;18912;43.270;27.942;2023-01-26T09:39:41;98620.28;;;10.38;83.32
32456;BME280;18912;43.270;27.942;2023-01-26T09:42:41;98622.41;;;10.07;83.69
32456;BME280;18912;43.270;27.942;2023-01-26T09:48:39;98617.41;;;10.04;84.67
32456;BME280;18912;43.270;27.942;2023-01-26T09:51:12;98617.91;;;10.50;82.67
32456;BME280;18912;43.270;27.942;2023-01-26T09:56:14;98597.63;;;9.97;87.39
32456;BME280;18912;43.270;27.942;2023-01-26T09:58:45;98603.34;;;9.73;87.75
32456;BME280;18912;43.270;27.942;2023-01-26T10:01:20;98589.78;;;10.23;85.12
32456;BME280;18912;43.270;27.942;2023-01-26T10:04:03;98582.78;;;10.28;84.36
32456;BME280;18912;43.270;27.942;2023-01-26T10:06:31;98593.47;;;9.80;85.91
32456;BME280;18912;43.270;27.942;2023-01-26T10:08:57;98580.31;;;9.91;85.88
32456;BME280;18912;43.270;27.942;2023-01-26T10:11:26;98566.81;;;10.12;85.87
32456;BME280;18912;43.270;27.942;2023-01-26T10:13:58;98565.06;;;10.26;85.64
32456;BME280;18912;43.270;27.942;2023-01-26T10:16:24;98575.44;;;10.71;83.98
32456;BME280;18912;43.270;27.942;2023-01-26T10:18:59;98559.88;;;10.24;83.88
32456;BME280;18912;43.270;27.942;2023-01-26T10:21:32;98563.91;;;9.93;84.74
32456;BME280;18912;43.270;27.942;2023-01-26T10:24:00;98572.28;;;10.19;83.92
32456;BME280;18912;43.270;27.942;2023-01-26T10:26:30;98572.19;;;10.55;83.73
32456;BME280;18912;43.270;27.942;2023-01-26T10:28:56;98565.78;;;10.62;82.81
32456;BME280;18912;43.270;27.942;2023-01-26T10:31:24;98553.56;;;10.66;81.95
32456;BME280;18912;43.270;27.942;2023-01-26T10:33:55;98574.63;;;10.77;80.21
32456;BME280;18912;43.270;27.942;2023-01-26T10:36:22;98542.56;;;10.40;80.96
32456;BME280;18912;43.270;27.942;2023-01-26T10:38:49;98530.84;;;10.61;80.96
32456;BME280;18912;43.270;27.942;2023-01-26T10:46:36;98513.63;;;10.62;82.21
32456;BME280;18912;43.270;27.942;2023-01-26T10:49:22;98521.13;;;10.66;82.18
32456;BME280;18912;43.270;27.942;2023-01-26T10:52:23;98519.25;;;10.39;82.73
32456;BME280;18912;43.270;27.942;2023-01-26T10:55:10;98523.19;;;10.64;81.44
32456;BME280;18912;43.270;27.942;2023-01-26T10:57:37;98505.53;;;10.68;81.44
32456;BME280;18912;43.270;27.942;2023-01-26T11:00:08;98514.63;;;10.88;80.79
32456;BME280;18912;43.270;27.942;2023-01-26T11:02:53;98503.38;;;10.91;78.67
32456;BME280;18912;43.270;27.942;2023-01-26T11:05:21;98504.88;;;11.00;77.54
32456;BME280;18912;43.270;27.942;2023-01-26T11:07:49;98522.81;;;10.67;79.28
32456;BME280;18912;43.270;27.942;2023-01-26T11:12:44;98505.66;;;10.54;79.77
32456;BME280;18912;43.270;27.942;2023-01-26T11:15:22;98508.94;;;10.77;78.73
32456;BME280;18912;43.270;27.942;2023-01-26T11:18:01;98521.91;;;10.60;79.48
32456;BME280;18912;43.270;27.942;2023-01-26T11:23:12;98507.00;;;10.71;78.44
32456;BME280;18912;43.270;27.942;2023-01-26T11:31:21;98505.75;;;10.73;76.66
32456;BME280;18912;43.270;27.942;2023-01-26T11:34:28;98503.91;;;10.74;76.40
32456;BME280;18912;43.270;27.942;2023-01-26T11:40:11;98500.63;;;10.51;76.20
32456;BME280;18912;43.270;27.942;2023-01-26T11:57:08;98484.59;;;10.77;75.25
32456;BME280;18912;43.270;27.942;2023-01-26T11:59:40;98478.50;;;11.09;73.98
32456;BME280;18912;43.270;27.942;2023-01-26T12:05:09;98478.28;;;10.70;74.16
32456;BME280;18912;43.270;27.942;2023-01-26T12:08:03;98474.66;;;10.90;74.65
32456;BME280;18912;43.270;27.942;2023-01-26T12:14:11;98473.84;;;10.90;75.39
32456;BME280;18912;43.270;27.942;2023-01-26T12:21:48;98476.72;;;10.82;73.73
32456;BME280;18912;43.270;27.942;2023-01-26T12:24:32;98471.44;;;10.67;73.32
32456;BME280;18912;43.270;27.942;2023-01-26T12:27:02;98471.34;;;10.88;72.25
32456;BME280;18912;43.270;27.942;2023-01-26T12:32:26;98466.81;;;10.61;73.17
32456;BME280;18912;43.270;27.942;2023-01-26T12:34:51;98462.41;;;10.94;73.09
32456;BME280;18912;43.270;27.942;2023-01-26T12:40:42;98465.47;;;10.85;74.16
32456;BME280;18912;43.270;27.942;2023-01-26T12:46:13;98448.78;;;11.22;73.48
32456;BME280;18912;43.270;27.942;2023-01-26T12:51:10;98453.59;;;10.79;76.83
32456;BME280;18912;43.270;27.942;2023-01-26T12:56:16;98439.06;;;10.80;79.75
32456;BME280;18912;43.270;27.942;2023-01-26T12:58:47;98444.31;;;10.88;79.25
32456;BME280;18912;43.270;27.942;2023-01-26T13:01:21;98441.34;;;10.77;80.01
32456;BME280;18912;43.270;27.942;2023-01-26T13:03:55;98442.72;;;11.13;77.98
32456;BME280;18912;43.270;27.942;2023-01-26T13:06:24;98445.16;;;11.02;78.32
32456;BME280;18912;43.270;27.942;2023-01-26T13:11:43;98435.00;;;11.10;78.05
32456;BME280;18912;43.270;27.942;2023-01-26T13:14:29;98436.34;;;10.80;78.84
32456;BME280;18912;43.270;27.942;2023-01-26T13:16:56;98426.84;;;10.97;79.01
32456;BME280;18912;43.270;27.942;2023-01-26T13:24:47;98405.22;;;10.97;79.16
32456;BME280;18912;43.270;27.942;2023-01-26T13:27:43;98393.47;;;10.77;79.98
32456;BME280;18912;43.270;27.942;2023-01-26T13:30:33;98387.56;;;11.01;79.17
32456;BME280;18912;43.270;27.942;2023-01-26T13:33:09;98377.28;;;10.84;79.33
32456;BME280;18912;43.270;27.942;2023-01-26T13:35:37;98381.94;;;11.03;79.33
32456;BME280;18912;43.270;27.942;2023-01-26T13:40:45;98383.97;;;10.94;79.17
32456;BME280;18912;43.270;27.942;2023-01-26T13:43:27;98389.28;;;10.68;80.43
32456;BME280;18912;43.270;27.942;2023-01-26T13:48:47;98386.41;;;10.76;79.75
32456;BME280;18912;43.270;27.942;2023-01-26T13:54:10;98390.97;;;10.76;79.93
32456;BME280;18912;43.270;27.942;2023-01-26T13:56:41;98380.25;;;10.95;79.37
32456;BME280;18912;43.270;27.942;2023-01-26T13:59:15;98377.63;;;10.61;79.96
32456;BME280;18912;43.270;27.942;2023-01-26T14:01:46;98382.22;;;10.67;80.07
32456;BME280;18912;43.270;27.942;2023-01-26T14:04:20;98373.31;;;10.80;79.74
32456;BME280;18912;43.270;27.942;2023-01-26T14:06:50;98362.81;;;10.57;80.84
32456;BME280;18912;43.270;27.942;2023-01-26T14:09:17;98363.84;;;10.56;80.72
32456;BME280;18912;43.270;27.942;2023-01-26T14:11:43;98368.22;;;10.57;80.98
32456;BME280;18912;43.270;27.942;2023-01-26T14:14:34;98369.34;;;10.69;81.06
32456;BME280;18912;43.270;27.942;2023-01-26T14:17:28;98345.16;;;10.61;80.42
32456;BME280;18912;43.270;27.942;2023-01-26T14:19:51;98341.38;;;10.49;80.88
32456;BME280;18912;43.270;27.942;2023-01-26T14:22:17;98350.22;;;10.30;81.32
32456;BME280;18912;43.270;27.942;2023-01-26T14:24:47;98351.88;;;10.31;80.93
32456;BME280;18912;43.270;27.942;2023-01-26T14:27:39;98356.72;;;10.42;81.13
32456;BME280;18912;43.270;27.942;2023-01-26T14:30:21;98356.25;;;10.32;80.60
32456;BME280;18912;43.270;27.942;2023-01-26T14:32:55;98341.84;;;10.66;79.26
32456;BME280;18912;43.270;27.942;2023-01-26T14:35:23;98347.44;;;10.58;79.80
32456;BME280;18912;43.270;27.942;2023-01-26T14:37:49;98343.72;;;10.65;78.74
32456;BME280;18912;43.270;27.942;2023-01-26T14:40:28;98344.69;;;10.51;78.40